createdAt,value
2018-02-20T00:02:14.078Z,34.42
2018-02-20T00:04:41.639Z,35.85
2018-02-20T00:07:09.931Z,36.80
2018-02-20T00:09:37.514Z,35.38
2018-02-20T00:12:05.119Z,36.55
2018-02-20T00:14:32.698Z,34.55
2018-02-20T00:17:00.271Z,37.53
2018-02-20T00:19:27.863Z,38.47
2018-02-20T00:21:56.220Z,37.90
2018-02-20T00:24:23.896Z,38.00
2018-02-20T00:26:51.464Z,37.65
2018-02-20T00:29:19.807Z,38.63
2018-02-20T00:31:47.311Z,39.80
2018-02-20T00:34:15.562Z,38.67
2018-02-20T00:36:43.055Z,39.13
2018-02-20T00:39:11.308Z,38.70
2018-02-20T00:41:38.888Z,38.53
2018-02-20T00:44:07.148Z,39.75
2018-02-20T00:46:34.724Z,39.00
2018-02-20T00:49:03.000Z,39.03
2018-02-20T00:51:31.251Z,39.97
2018-02-20T00:53:58.742Z,41.70
2018-02-20T00:56:27.011Z,39.97
2018-02-20T00:58:55.282Z,40.80
2018-02-20T01:01:23.531Z,41.25
2018-02-20T01:03:51.200Z,41.85
2018-02-20T01:06:18.696Z,39.90
2018-02-20T01:08:46.208Z,41.37
2018-02-20T01:11:13.700Z,42.10
2018-02-20T01:13:41.981Z,41.80
2018-02-20T01:16:10.229Z,43.45
2018-02-20T01:18:37.719Z,42.28
2018-02-20T01:21:05.984Z,43.03
2018-02-20T01:23:34.246Z,43.13
2018-02-20T01:26:01.754Z,44.08
2018-02-20T01:28:29.298Z,43.83
2018-02-20T01:33:48.351Z,45.75
2018-02-20T01:36:16.609Z,44.80
2018-02-20T01:38:44.108Z,45.03
2018-02-20T01:41:11.595Z,44.22
2018-02-20T01:43:39.105Z,44.70
2018-02-20T01:46:07.361Z,45.63
2018-02-20T01:48:34.848Z,44.22
2018-02-20T01:51:07.946Z,44.80
2018-02-20T01:53:36.210Z,43.97
2018-02-20T01:56:04.478Z,46.28
2018-02-20T01:58:33.662Z,44.58
2018-02-20T02:01:01.985Z,45.12
2018-02-20T02:03:29.487Z,43.97
2018-02-20T02:05:57.092Z,46.08
2018-02-20T02:08:25.347Z,45.33
2018-02-20T02:10:53.646Z,46.00
2018-02-20T02:13:21.914Z,45.78
2018-02-20T02:15:50.178Z,45.35
2018-02-20T02:18:18.456Z,47.88
2018-02-20T02:20:46.728Z,47.50
2018-02-20T02:23:14.259Z,46.67
2018-02-20T02:25:41.770Z,46.65
2018-02-20T02:28:10.052Z,49.78
2018-02-20T02:30:37.561Z,47.03
2018-02-20T02:33:05.058Z,48.63
2018-02-20T02:35:32.664Z,46.10
2018-02-20T02:38:00.156Z,46.78
2018-02-20T02:40:27.651Z,48.20
2018-02-20T02:42:55.148Z,47.97
2018-02-20T02:45:22.652Z,47.22
2018-02-20T02:47:50.925Z,47.55
2018-02-20T02:50:19.213Z,45.38
2018-02-20T02:52:46.727Z,47.92
2018-02-20T02:55:14.333Z,47.78
2018-02-20T02:57:41.888Z,45.60
2018-02-20T03:00:10.168Z,47.42
2018-02-20T03:02:38.445Z,46.37
2018-02-20T03:05:06.003Z,47.55
2018-02-20T03:07:34.280Z,47.33
2018-02-20T03:10:02.577Z,47.22
2018-02-20T03:12:30.117Z,47.20
2018-02-20T03:14:58.395Z,44.35
2018-02-20T03:17:25.898Z,46.55
2018-02-20T03:19:53.389Z,47.58
2018-02-20T03:22:21.690Z,46.83
2018-02-20T03:24:49.211Z,46.47
2018-02-20T03:27:16.814Z,48.63
2018-02-20T03:29:44.306Z,46.85
2018-02-20T03:32:11.806Z,46.70
2018-02-20T03:34:40.065Z,46.40
2018-02-20T03:37:07.569Z,47.75
2018-02-20T03:39:35.051Z,46.55
2018-02-20T03:42:02.557Z,47.95
2018-02-20T03:44:30.826Z,49.50
2018-02-20T03:46:58.328Z,46.58
2018-02-20T03:49:25.873Z,48.42
2018-02-20T03:51:53.386Z,48.25
2018-02-20T03:54:20.989Z,48.05
2018-02-20T03:56:48.502Z,48.13
2018-02-20T03:59:16.114Z,49.53
2018-02-20T04:01:43.669Z,48.42
2018-02-20T04:04:11.228Z,50.35
2018-02-20T04:06:39.577Z,48.65
2018-02-20T04:09:07.069Z,51.37
2018-02-20T04:11:34.622Z,52.28
2018-02-20T04:14:02.893Z,49.38
2018-02-20T04:16:31.156Z,50.35
2018-02-20T04:18:59.420Z,49.13
2018-02-20T04:21:26.929Z,49.15
2018-02-20T04:23:54.468Z,48.00
2018-02-20T04:26:22.729Z,49.53
2018-02-20T04:28:51.021Z,47.83
2018-02-20T04:31:19.397Z,48.10
2018-02-20T04:33:47.658Z,50.47
2018-02-20T04:36:15.961Z,48.40
2018-02-20T04:38:43.520Z,49.78
2018-02-20T04:41:11.014Z,49.45
2018-02-20T04:43:38.512Z,49.28
2018-02-20T04:46:06.088Z,49.33
2018-02-20T04:48:34.366Z,50.63
2018-02-20T04:51:01.865Z,47.97
2018-02-20T04:53:29.399Z,48.55
2018-02-20T04:55:56.892Z,48.13
2018-02-20T04:58:24.500Z,50.20
2018-02-20T05:00:52.787Z,49.53
2018-02-20T05:03:20.340Z,49.42
2018-02-20T05:05:49.398Z,49.28
2018-02-20T05:08:16.920Z,53.30
2018-02-20T05:10:44.465Z,49.60
2018-02-20T05:13:11.963Z,49.35
2018-02-20T05:15:39.582Z,49.72
2018-02-20T05:18:07.073Z,47.58
2018-02-20T05:20:34.580Z,49.28
2018-02-20T05:23:02.877Z,46.05
2018-02-20T05:25:30.432Z,49.00
2018-02-20T05:27:57.936Z,49.70
2018-02-20T05:30:25.434Z,48.65
2018-02-20T05:32:53.709Z,47.83
2018-02-20T05:35:21.977Z,46.85
2018-02-20T05:37:49.535Z,49.45
2018-02-20T05:40:17.125Z,47.95
2018-02-20T05:42:44.641Z,46.53
2018-02-20T05:45:12.923Z,47.47
2018-02-20T05:47:40.414Z,48.50
2018-02-20T05:50:08.300Z,46.33
2018-02-20T05:52:35.795Z,47.00
2018-02-20T05:55:03.296Z,48.25
2018-02-20T05:57:30.858Z,46.78
2018-02-20T05:59:58.419Z,46.83
2018-02-20T06:02:25.910Z,46.53
2018-02-20T06:04:53.438Z,45.70
2018-02-20T06:07:20.960Z,46.72
2018-02-20T06:09:48.445Z,47.30
2018-02-20T06:12:16.749Z,47.65
2018-02-20T06:14:44.250Z,47.88
2018-02-20T06:17:11.752Z,46.42
2018-02-20T06:19:39.237Z,47.08
2018-02-20T06:22:06.805Z,45.83
2018-02-20T06:24:34.306Z,48.25
2018-02-20T06:27:02.568Z,50.25
2018-02-20T06:29:30.154Z,49.38
2018-02-20T06:31:58.427Z,53.45
2018-02-20T06:34:26.704Z,48.40
2018-02-20T06:36:55.003Z,46.60
2018-02-20T06:39:22.506Z,45.90
2018-02-20T06:41:50.101Z,45.67
2018-02-20T06:44:18.383Z,45.78
2018-02-20T06:46:46.684Z,48.13
2018-02-20T06:49:14.214Z,47.40
2018-02-20T06:51:42.474Z,45.88
2018-02-20T06:54:10.051Z,40.47
2018-02-20T06:56:38.345Z,48.75
2018-02-20T06:59:05.855Z,46.45
2018-02-20T07:01:33.343Z,47.53
2018-02-20T07:04:01.624Z,48.00
2018-02-20T07:06:29.876Z,48.72
2018-02-20T07:08:57.406Z,46.28
2018-02-20T07:11:24.901Z,49.33
2018-02-20T07:13:52.407Z,47.28
2018-02-20T07:16:19.904Z,47.88
2018-02-20T07:18:47.472Z,50.50
2018-02-20T07:21:15.050Z,49.03
2018-02-20T07:23:43.429Z,48.65
2018-02-20T07:26:10.984Z,45.08
2018-02-20T07:28:39.241Z,44.60
2018-02-20T07:31:07.567Z,45.40
2018-02-20T07:33:35.086Z,49.85
2018-02-20T07:36:03.345Z,48.47
2018-02-20T07:38:30.846Z,56.75
2018-02-20T07:40:58.364Z,55.72
2018-02-20T07:43:25.912Z,74.35
2018-02-20T07:45:53.418Z,130.87
2018-02-20T07:48:20.944Z,82.55
2018-02-20T07:50:48.437Z,42.38
2018-02-20T07:53:16.832Z,43.65
2018-02-20T07:55:44.373Z,48.92
2018-02-20T07:58:12.650Z,46.50
2018-02-20T08:00:40.162Z,47.00
2018-02-20T08:03:08.472Z,45.03
2018-02-20T08:05:36.760Z,42.72
2018-02-20T08:08:04.301Z,43.17
2018-02-20T08:10:32.083Z,44.55
2018-02-20T08:13:00.367Z,43.45
2018-02-20T08:15:28.185Z,42.95
2018-02-20T08:17:55.676Z,43.92
2018-02-20T08:20:23.937Z,44.80
2018-02-20T08:22:51.482Z,43.30
2018-02-20T08:25:18.980Z,42.65
2018-02-20T08:27:48.110Z,40.83
2018-02-20T08:30:15.668Z,41.83
2018-02-20T08:32:43.204Z,43.50
2018-02-20T08:35:10.695Z,41.08
2018-02-20T08:37:38.191Z,40.25
2018-02-20T08:40:05.718Z,41.37
2018-02-20T08:42:33.268Z,43.25
2018-02-20T08:45:00.810Z,40.60
2018-02-20T08:47:28.305Z,40.65
2018-02-20T08:49:55.787Z,45.55
2018-02-20T08:52:23.307Z,40.72
2018-02-20T08:54:50.802Z,42.95
2018-02-20T08:57:19.064Z,41.03
2018-02-20T08:59:46.693Z,44.70
2018-02-20T09:02:14.189Z,46.20
2018-02-20T09:04:42.520Z,42.92
2018-02-20T09:07:10.161Z,42.47
2018-02-20T09:09:40.400Z,41.65
2018-02-20T09:12:07.886Z,41.42
2018-02-20T09:14:35.384Z,43.87
2018-02-20T09:17:03.678Z,42.38
2018-02-20T09:19:31.168Z,42.08
2018-02-20T09:21:58.683Z,41.33
2018-02-20T09:24:26.952Z,43.75
2018-02-20T09:26:54.477Z,45.67
2018-02-20T09:29:21.975Z,41.33
2018-02-20T09:31:50.244Z,41.93
2018-02-20T09:34:18.541Z,41.77
2018-02-20T09:36:46.103Z,42.47
2018-02-20T09:39:13.666Z,41.33
2018-02-20T09:41:43.874Z,43.38
2018-02-20T09:44:11.437Z,42.20
2018-02-20T09:46:39.688Z,42.50
2018-02-20T09:49:07.299Z,42.50
2018-02-20T09:51:34.801Z,41.30
2018-02-20T09:54:02.879Z,41.30
2018-02-20T09:56:30.401Z,41.70
2018-02-20T09:58:57.957Z,41.20
2018-02-20T10:01:25.492Z,42.87
2018-02-20T10:03:53.130Z,40.80
2018-02-20T10:06:21.471Z,42.90
2018-02-20T10:08:48.989Z,42.30
2018-02-20T10:11:16.483Z,42.53
2018-02-20T10:13:43.971Z,42.20
2018-02-20T10:16:11.528Z,41.97
2018-02-20T10:18:39.833Z,44.50
2018-02-20T10:21:08.103Z,44.53
2018-02-20T10:23:36.373Z,43.10
2018-02-20T10:26:03.944Z,42.20
2018-02-20T10:28:32.220Z,42.70
2018-02-20T10:30:59.792Z,42.13
2018-02-20T10:33:27.339Z,45.30
2018-02-20T10:35:55.657Z,43.23
2018-02-20T10:38:23.140Z,42.53
2018-02-20T10:40:50.676Z,42.07
2018-02-20T10:43:18.202Z,44.07
2018-02-20T10:45:45.700Z,44.07
2018-02-20T10:48:13.256Z,42.23
2018-02-20T10:50:40.764Z,44.17
2018-02-20T10:53:09.054Z,42.47
2018-02-20T10:55:36.615Z,43.20
2018-02-20T10:58:04.994Z,41.30
2018-02-20T11:00:32.547Z,42.70
2018-02-20T11:03:00.805Z,44.33
2018-02-20T11:05:29.101Z,41.77
2018-02-20T11:07:57.410Z,41.73
2018-02-20T11:10:24.910Z,41.83
2018-02-20T11:12:52.496Z,41.53
2018-02-20T11:15:20.752Z,41.97
2018-02-20T11:17:48.261Z,43.43
2018-02-20T11:20:15.751Z,40.77
2018-02-20T11:22:43.273Z,41.93
2018-02-20T11:25:10.805Z,41.47
2018-02-20T11:27:39.058Z,41.43
2018-02-20T11:30:06.577Z,39.83
2018-02-20T11:32:34.065Z,40.47
2018-02-20T11:35:01.626Z,40.83
2018-02-20T11:37:29.241Z,39.97
2018-02-20T11:39:56.736Z,40.63
2018-02-20T11:42:24.234Z,41.23
2018-02-20T11:44:52.543Z,39.90
2018-02-20T11:47:20.048Z,40.13
2018-02-20T11:49:47.788Z,38.07
2018-02-20T11:52:15.325Z,38.23
2018-02-20T11:54:42.817Z,39.23
2018-02-20T11:57:10.416Z,38.47
2018-02-20T11:59:38.707Z,40.03
2018-02-20T12:02:06.284Z,40.07
2018-02-20T12:04:34.145Z,38.90
2018-02-20T12:07:01.711Z,39.77
2018-02-20T12:09:29.255Z,39.60
2018-02-20T12:11:56.847Z,38.97
2018-02-20T12:14:24.399Z,41.23
2018-02-20T12:16:51.891Z,45.73
2018-02-20T12:19:19.407Z,39.37
2018-02-20T12:21:46.946Z,39.17
2018-02-20T12:24:14.471Z,37.30
2018-02-20T12:26:41.976Z,36.27
2018-02-20T12:29:09.478Z,36.33
2018-02-20T12:31:36.978Z,34.97
2018-02-20T12:34:04.559Z,34.90
2018-02-20T12:36:32.099Z,36.17
2018-02-20T12:38:59.593Z,33.17
2018-02-20T12:41:27.124Z,33.50
2018-02-20T12:43:54.620Z,32.93
2018-02-20T12:46:22.163Z,33.00
2018-02-20T12:48:49.671Z,33.93
2018-02-20T12:51:17.931Z,31.63
2018-02-20T12:53:45.514Z,31.67
2018-02-20T12:56:13.783Z,30.67
2018-02-20T12:58:48.804Z,31.40
2018-02-20T13:01:16.357Z,29.23
2018-02-20T13:03:43.839Z,30.30
2018-02-20T13:06:12.109Z,30.73
2018-02-20T13:08:40.374Z,29.97
2018-02-20T13:11:07.875Z,28.13
2018-02-20T13:13:35.408Z,28.67
2018-02-20T13:16:03.673Z,28.70
2018-02-20T13:18:31.168Z,28.40
2018-02-20T13:20:58.674Z,27.63
2018-02-20T13:23:26.168Z,27.20
2018-02-20T13:25:56.523Z,26.53
2018-02-20T13:28:24.008Z,25.47
2018-02-20T13:30:52.707Z,25.57
2018-02-20T13:33:20.232Z,24.90
2018-02-20T13:35:47.761Z,23.80
2018-02-20T13:38:16.025Z,22.83
2018-02-20T13:40:44.296Z,23.10
2018-02-20T13:43:11.841Z,22.93
2018-02-20T13:45:39.337Z,22.50
2018-02-20T13:48:06.829Z,23.00
2018-02-20T13:50:34.368Z,21.70
2018-02-20T13:53:01.869Z,22.47
2018-02-20T13:55:29.376Z,20.27
2018-02-20T13:57:56.934Z,20.27
2018-02-20T14:00:24.824Z,21.03
2018-02-20T14:02:52.338Z,20.13
2018-02-20T14:05:19.913Z,21.27
2018-02-20T14:07:47.431Z,22.57
2018-02-20T14:10:14.985Z,20.47
2018-02-20T14:12:42.503Z,20.93
2018-02-20T14:15:10.037Z,22.13
2018-02-20T14:17:38.292Z,21.30
2018-02-20T14:20:06.570Z,22.40
2018-02-20T14:22:34.073Z,21.57
2018-02-20T14:25:01.614Z,21.47
2018-02-20T14:27:29.876Z,21.60
2018-02-20T14:29:57.380Z,21.73
2018-02-20T14:32:24.873Z,21.50
2018-02-20T14:34:52.397Z,21.43
2018-02-20T14:37:19.929Z,20.50
2018-02-20T14:39:48.217Z,21.10
2018-02-20T14:42:15.769Z,21.30
2018-02-20T14:44:43.323Z,21.40
2018-02-20T14:47:11.596Z,21.43
2018-02-20T14:49:39.878Z,20.53
2018-02-20T14:52:08.145Z,21.43
2018-02-20T14:54:35.694Z,20.90
2018-02-20T14:57:03.209Z,20.90
2018-02-20T14:59:30.695Z,20.83
2018-02-20T15:01:58.209Z,20.80
2018-02-20T15:04:25.704Z,21.77
2018-02-20T15:06:53.215Z,21.93
2018-02-20T15:09:20.708Z,22.07
2018-02-20T15:11:48.717Z,21.37
2018-02-20T15:14:16.996Z,20.93
2018-02-20T15:16:45.395Z,21.77
2018-02-20T15:19:12.959Z,22.50
2018-02-20T15:21:40.539Z,22.70
2018-02-20T15:24:08.064Z,21.87
2018-02-20T15:26:36.410Z,23.00
2018-02-20T15:29:03.911Z,23.23
2018-02-20T15:31:31.468Z,23.07
2018-02-20T15:33:59.756Z,23.60
2018-02-20T15:36:27.288Z,22.77
2018-02-20T15:38:55.551Z,30.60
2018-02-20T15:41:23.059Z,23.87
2018-02-20T15:43:50.605Z,23.10
2018-02-20T15:46:18.152Z,24.10
2018-02-20T15:48:46.416Z,22.93
2018-02-20T15:51:14.693Z,23.57
2018-02-20T15:53:42.950Z,23.40
2018-02-20T15:56:11.229Z,24.27
2018-02-20T15:58:38.821Z,25.20
2018-02-20T16:01:06.323Z,30.47
2018-02-20T16:03:34.470Z,25.63
2018-02-20T16:06:02.840Z,24.80
2018-02-20T16:08:30.336Z,26.20
2018-02-20T16:10:57.852Z,26.27
2018-02-20T16:13:25.354Z,27.37
2018-02-20T16:15:55.428Z,25.50
2018-02-20T16:18:22.932Z,26.53
2018-02-20T16:20:50.448Z,26.77
2018-02-20T16:23:17.968Z,25.95
2018-02-20T16:25:47.002Z,27.27
2018-02-20T16:28:14.611Z,29.02
2018-02-20T16:30:42.216Z,28.05
2018-02-20T16:33:11.051Z,28.13
2018-02-20T16:35:38.607Z,28.80
2018-02-20T16:38:06.120Z,27.33
2018-02-20T16:40:33.702Z,27.08
2018-02-20T16:43:01.366Z,26.60
2018-02-20T16:45:28.885Z,28.75
2018-02-20T16:47:57.157Z,28.77
2018-02-20T16:50:25.603Z,27.40
2018-02-20T16:52:53.113Z,26.65
2018-02-20T16:55:21.412Z,26.92
2018-02-20T16:57:48.921Z,27.37
2018-02-20T17:00:16.444Z,26.70
2018-02-20T17:02:43.936Z,27.67
2018-02-20T17:05:11.664Z,25.20
2018-02-20T17:07:39.203Z,27.05
2018-02-20T17:10:06.720Z,26.12
2018-02-20T17:12:34.232Z,26.37
2018-02-20T17:15:01.740Z,25.75
2018-02-20T17:17:29.349Z,25.98
2018-02-20T17:19:56.940Z,25.75
2018-02-20T17:22:24.494Z,26.98
2018-02-20T17:24:52.039Z,25.80
2018-02-20T17:27:19.561Z,25.55
2018-02-20T17:29:48.100Z,25.20
2018-02-20T17:32:15.616Z,26.85
2018-02-20T17:34:43.918Z,25.73
2018-02-20T17:37:12.193Z,28.02
2018-02-20T17:39:39.750Z,27.08
2018-02-20T17:42:07.262Z,25.60
2018-02-20T17:44:34.954Z,30.50
2018-02-20T17:47:02.459Z,26.60
2018-02-20T17:49:29.986Z,25.80
2018-02-20T17:51:57.552Z,25.42
2018-02-20T17:54:25.214Z,25.92
2018-02-20T17:56:52.706Z,25.55
2018-02-20T17:59:20.256Z,25.83
2018-02-20T18:01:47.768Z,26.37
2018-02-20T18:04:15.277Z,25.25
2018-02-20T18:06:42.772Z,26.55
2018-02-20T18:09:11.060Z,27.20
2018-02-20T18:11:38.554Z,28.00
2018-02-20T18:14:06.079Z,25.33
2018-02-20T18:16:33.597Z,25.75
2018-02-20T18:19:01.107Z,25.48
2018-02-20T18:21:28.607Z,26.75
2018-02-20T18:23:56.100Z,24.02
2018-02-20T18:26:24.397Z,23.98
2018-02-20T18:28:51.973Z,25.05
2018-02-20T18:31:19.504Z,25.58
2018-02-20T18:33:47.804Z,26.12
2018-02-20T18:36:15.358Z,105.50
2018-02-20T18:38:42.939Z,97.12
2018-02-20T18:41:10.456Z,152.62
2018-02-20T18:43:38.793Z,217.60
2018-02-20T18:46:06.445Z,244.00
2018-02-20T18:48:34.100Z,102.68
2018-02-20T18:51:02.315Z,182.95
2018-02-20T18:53:29.808Z,109.70
2018-02-20T18:55:57.313Z,140.27
2018-02-20T18:58:24.831Z,106.63
2018-02-20T19:00:52.386Z,81.87
2018-02-20T19:03:19.897Z,94.57
2018-02-20T19:05:47.501Z,35.33
2018-02-20T19:08:15.040Z,40.28
2018-02-20T19:10:43.300Z,47.80
2018-02-20T19:13:10.788Z,43.45
2018-02-20T19:15:39.078Z,57.53
2018-02-20T19:18:06.657Z,38.17
2018-02-20T19:20:34.161Z,29.75
2018-02-20T19:23:01.657Z,33.22
2018-02-20T19:25:29.163Z,39.05
2018-02-20T19:27:56.658Z,30.67
2018-02-20T19:30:24.934Z,30.23
2018-02-20T19:32:53.214Z,26.87
2018-02-20T19:35:21.475Z,27.30
2018-02-20T19:37:49.738Z,28.20
2018-02-20T19:40:18.239Z,28.77
2018-02-20T19:42:46.501Z,27.10
2018-02-20T19:45:15.534Z,29.95
2018-02-20T19:47:43.081Z,28.58
2018-02-20T19:50:11.355Z,27.00
2018-02-20T19:52:39.751Z,28.33
2018-02-20T19:55:07.264Z,27.08
2018-02-20T19:57:34.747Z,29.73
2018-02-20T20:00:03.650Z,28.05
2018-02-20T20:02:31.139Z,27.73
2018-02-20T20:04:58.683Z,28.60
2018-02-20T20:07:26.592Z,30.88
2018-02-20T20:09:54.090Z,31.83
2018-02-20T20:12:22.367Z,28.33
2018-02-20T20:14:49.877Z,29.77
2018-02-20T20:17:17.660Z,29.10
2018-02-20T20:19:45.191Z,28.73
2018-02-20T20:22:12.822Z,29.73
2018-02-20T20:24:41.094Z,27.98
2018-02-20T20:27:08.680Z,28.27
2018-02-20T20:29:36.236Z,27.85
2018-02-20T20:32:03.756Z,27.10
2018-02-20T20:34:32.016Z,28.92
2018-02-20T20:37:01.025Z,26.70
2018-02-20T20:39:29.789Z,27.35
2018-02-20T20:41:57.380Z,28.42
2018-02-20T20:44:25.662Z,27.70
2018-02-20T20:46:53.176Z,27.58
2018-02-20T20:49:20.687Z,26.73
2018-02-20T20:51:48.179Z,27.02
2018-02-20T20:54:15.668Z,26.02
2018-02-20T20:56:44.053Z,29.15
2018-02-20T20:59:12.335Z,29.12
2018-02-20T21:01:40.614Z,28.30
2018-02-20T21:04:09.368Z,27.33
2018-02-20T21:06:36.969Z,27.55
2018-02-20T21:09:05.250Z,27.65
2018-02-20T21:11:33.524Z,26.90
2018-02-20T21:14:01.790Z,27.33
2018-02-20T21:16:29.486Z,28.90
2018-02-20T21:18:57.109Z,80.35
2018-02-20T21:21:25.469Z,32.03
2018-02-20T21:23:52.933Z,28.65
2018-02-20T21:26:20.524Z,28.58
2018-02-20T21:28:48.800Z,28.65
2018-02-20T21:31:17.092Z,27.37
2018-02-20T21:33:45.413Z,27.23
2018-02-20T21:36:15.072Z,28.75
2018-02-20T21:38:43.566Z,30.08
2018-02-20T21:41:11.797Z,29.75
2018-02-20T21:43:39.288Z,30.12
2018-02-20T21:46:07.408Z,27.45
2018-02-20T21:48:35.973Z,29.10
2018-02-20T21:51:03.686Z,28.48
2018-02-20T21:53:31.960Z,28.27
2018-02-20T21:56:00.248Z,27.77
2018-02-20T21:58:27.813Z,29.15
2018-02-20T22:00:56.078Z,30.10
2018-02-20T22:03:24.375Z,29.20
2018-02-20T22:05:51.937Z,29.27
2018-02-20T22:08:19.454Z,29.10
2018-02-20T22:10:47.050Z,28.48
2018-02-20T22:13:14.544Z,29.73
2018-02-20T22:15:42.039Z,29.52
2018-02-20T22:18:10.899Z,28.10
2018-02-20T22:20:38.417Z,30.40
2018-02-20T22:23:06.016Z,30.10
2018-02-20T22:25:33.562Z,29.25
2018-02-20T22:28:01.092Z,28.23
2018-02-20T22:30:28.649Z,29.30
2018-02-20T22:32:56.934Z,28.95
2018-02-20T22:35:24.505Z,30.12
2018-02-20T22:37:52.057Z,28.95
2018-02-20T22:40:19.586Z,29.48
2018-02-20T22:42:47.845Z,29.73
2018-02-20T22:45:15.347Z,30.05
2018-02-20T22:47:42.836Z,29.33
2018-02-20T22:50:11.129Z,30.27
2018-02-20T22:52:38.617Z,29.37
2018-02-20T22:55:06.913Z,30.20
2018-02-20T22:57:34.461Z,29.40
2018-02-20T23:00:02.740Z,30.48
2018-02-20T23:02:31.037Z,30.10
2018-02-20T23:04:58.550Z,29.58
2018-02-20T23:07:26.144Z,29.85
2018-02-20T23:09:54.833Z,29.55
2018-02-20T23:12:22.332Z,29.10
2018-02-20T23:14:49.973Z,30.37
2018-02-20T23:17:17.475Z,28.85
2018-02-20T23:19:45.482Z,29.55
2018-02-20T23:22:12.982Z,29.90
2018-02-20T23:24:40.482Z,31.65
2018-02-20T23:27:08.743Z,32.38
2018-02-20T23:29:36.248Z,32.53
2018-02-20T23:32:03.805Z,32.00
2018-02-20T23:34:31.638Z,32.45
2018-02-20T23:36:59.901Z,31.35
2018-02-20T23:39:28.183Z,31.20
2018-02-20T23:41:55.688Z,30.17
2018-02-20T23:44:23.228Z,30.45
2018-02-20T23:46:51.265Z,31.10
2018-02-20T23:49:18.883Z,29.48
2018-02-20T23:51:46.373Z,30.58
2018-02-20T23:54:13.881Z,29.52
2018-02-20T23:56:41.376Z,28.80
2018-02-20T23:59:08.891Z,27.77
